sensor_id;sensor_type;location;lat;lon;timestamp;temperature;humidity
65854;DHT22;52627;48.838;2.402;2023-05-07T00:00:36;15.28;84.00
65854;DHT22;52627;48.838;2.402;2023-05-07T00:03:04;15.22;84.13
65854;DHT22;52627;48.838;2.402;2023-05-07T00:05:33;15.22;84.40
65854;DHT22;52627;48.838;2.402;2023-05-07T00:08:00;15.22;84.69
65854;DHT22;52627;48.838;2.402;2023-05-07T00:10:27;15.20;84.87
65854;DHT22;52627;48.838;2.402;2023-05-07T00:12:55;15.19;84.96
65854;DHT22;52627;48.838;2.402;2023-05-07T00:15:22;15.20;85.10
65854;DHT22;52627;48.838;2.402;2023-05-07T00:17:50;15.20;85.21
65854;DHT22;52627;48.838;2.402;2023-05-07T00:20:17;15.16;85.22
65854;DHT22;52627;48.838;2.402;2023-05-07T00:22:45;15.13;85.38
65854;DHT22;52627;48.838;2.402;2023-05-07T00:25:12;15.13;85.48
65854;DHT22;52627;48.838;2.402;2023-05-07T00:27:40;15.11;85.57
65854;DHT22;52627;48.838;2.402;2023-05-07T00:30:08;15.07;85.59
65854;DHT22;52627;48.838;2.402;2023-05-07T00:32:37;15.05;85.68
65854;DHT22;52627;48.838;2.402;2023-05-07T00:35:05;15.05;85.82
65854;DHT22;52627;48.838;2.402;2023-05-07T00:37:34;15.06;85.89
65854;DHT22;52627;48.838;2.402;2023-05-07T00:40:02;15.04;86.00
65854;DHT22;52627;48.838;2.402;2023-05-07T00:42:34;15.04;86.16
65854;DHT22;52627;48.838;2.402;2023-05-07T00:45:01;15.06;86.30
65854;DHT22;52627;48.838;2.402;2023-05-07T00:47:30;15.10;86.46
65854;DHT22;52627;48.838;2.402;2023-05-07T00:49:58;15.13;86.56
65854;DHT22;52627;48.838;2.402;2023-05-07T00:52:26;15.15;86.60
65854;DHT22;52627;48.838;2.402;2023-05-07T00:54:55;15.13;86.61
65854;DHT22;52627;48.838;2.402;2023-05-07T00:57:23;15.15;86.74
65854;DHT22;52627;48.838;2.402;2023-05-07T00:59:52;15.17;86.86
65854;DHT22;52627;48.838;2.402;2023-05-07T01:02:20;15.19;86.99
65854;DHT22;52627;48.838;2.402;2023-05-07T01:04:47;15.19;87.07
65854;DHT22;52627;48.838;2.402;2023-05-07T01:07:15;15.19;87.08
65854;DHT22;52627;48.838;2.402;2023-05-07T01:09:42;15.16;87.10
65854;DHT22;52627;48.838;2.402;2023-05-07T01:12:10;15.14;87.13
65854;DHT22;52627;48.838;2.402;2023-05-07T01:14:37;15.11;87.14
65854;DHT22;52627;48.838;2.402;2023-05-07T01:17:05;15.08;87.25
65854;DHT22;52627;48.838;2.402;2023-05-07T01:19:33;15.08;87.36
65854;DHT22;52627;48.838;2.402;2023-05-07T01:22:03;15.10;87.48
65854;DHT22;52627;48.838;2.402;2023-05-07T01:24:38;15.10;87.51
65854;DHT22;52627;48.838;2.402;2023-05-07T01:27:05;15.09;87.61
65854;DHT22;52627;48.838;2.402;2023-05-07T01:29:33;15.12;87.68
65854;DHT22;52627;48.838;2.402;2023-05-07T01:32:01;15.16;87.78
65854;DHT22;52627;48.838;2.402;2023-05-07T01:34:31;15.19;87.88
65854;DHT22;52627;48.838;2.402;2023-05-07T01:37:00;15.19;87.85
65854;DHT22;52627;48.838;2.402;2023-05-07T01:39:28;15.16;87.88
65854;DHT22;52627;48.838;2.402;2023-05-07T01:41:57;15.10;87.89
65854;DHT22;52627;48.838;2.402;2023-05-07T01:44:26;15.04;87.96
65854;DHT22;52627;48.838;2.402;2023-05-07T01:46:55;15.05;88.08
65854;DHT22;52627;48.838;2.402;2023-05-07T01:49:24;15.07;88.19
65854;DHT22;52627;48.838;2.402;2023-05-07T01:51:52;15.08;88.24
65854;DHT22;52627;48.838;2.402;2023-05-07T01:54:21;15.09;88.34
65854;DHT22;52627;48.838;2.402;2023-05-07T01:56:56;15.11;88.42
65854;DHT22;52627;48.838;2.402;2023-05-07T01:59:24;15.15;88.50
65854;DHT22;52627;48.838;2.402;2023-05-07T02:01:52;15.17;88.58
65854;DHT22;52627;48.838;2.402;2023-05-07T02:04:19;15.20;88.64
65854;DHT22;52627;48.838;2.402;2023-05-07T02:06:47;15.21;88.70
65854;DHT22;52627;48.838;2.402;2023-05-07T02:09:15;15.21;88.70
65854;DHT22;52627;48.838;2.402;2023-05-07T02:11:44;15.21;88.79
65854;DHT22;52627;48.838;2.402;2023-05-07T02:14:12;15.22;88.81
65854;DHT22;52627;48.838;2.402;2023-05-07T02:16:39;15.22;88.88
65854;DHT22;52627;48.838;2.402;2023-05-07T02:19:07;15.23;88.92
65854;DHT22;52627;48.838;2.402;2023-05-07T02:21:34;15.23;88.98
65854;DHT22;52627;48.838;2.402;2023-05-07T02:24:01;15.23;89.00
65854;DHT22;52627;48.838;2.402;2023-05-07T02:26:29;15.22;88.99
65854;DHT22;52627;48.838;2.402;2023-05-07T02:28:56;15.22;89.03
65854;DHT22;52627;48.838;2.402;2023-05-07T02:31:24;15.20;89.07
65854;DHT22;52627;48.838;2.402;2023-05-07T02:33:51;15.19;89.12
65854;DHT22;52627;48.838;2.402;2023-05-07T02:36:18;15.19;89.18
65854;DHT22;52627;48.838;2.402;2023-05-07T02:38:46;15.21;89.25
65854;DHT22;52627;48.838;2.402;2023-05-07T02:41:13;15.22;89.28
65854;DHT22;52627;48.838;2.402;2023-05-07T02:43:41;15.22;89.32
65854;DHT22;52627;48.838;2.402;2023-05-07T02:46:08;15.22;89.39
65854;DHT22;52627;48.838;2.402;2023-05-07T02:48:36;15.23;89.41
65854;DHT22;52627;48.838;2.402;2023-05-07T02:51:04;15.25;89.50
65854;DHT22;52627;48.838;2.402;2023-05-07T02:53:32;15.26;89.56
65854;DHT22;52627;48.838;2.402;2023-05-07T02:56:00;15.28;89.59
65854;DHT22;52627;48.838;2.402;2023-05-07T02:58:29;15.31;89.69
65854;DHT22;52627;48.838;2.402;2023-05-07T03:00:56;15.33;89.71
65854;DHT22;52627;48.838;2.402;2023-05-07T03:03:24;15.35;89.74
65854;DHT22;52627;48.838;2.402;2023-05-07T03:05:52;15.36;89.80
65854;DHT22;52627;48.838;2.402;2023-05-07T03:08:19;15.38;89.85
65854;DHT22;52627;48.838;2.402;2023-05-07T03:10:47;15.39;89.88
65854;DHT22;52627;48.838;2.402;2023-05-07T03:13:14;15.39;89.90
65854;DHT22;52627;48.838;2.402;2023-05-07T03:15:42;15.41;89.92
65854;DHT22;52627;48.838;2.402;2023-05-07T03:18:10;15.41;90.00
65854;DHT22;52627;48.838;2.402;2023-05-07T03:20:37;15.42;90.00
65854;DHT22;52627;48.838;2.402;2023-05-07T03:23:05;15.43;90.02
65854;DHT22;52627;48.838;2.402;2023-05-07T03:25:32;15.43;90.04
65854;DHT22;52627;48.838;2.402;2023-05-07T03:28:00;15.44;90.07
65854;DHT22;52627;48.838;2.402;2023-05-07T03:30:28;15.43;90.09
65854;DHT22;52627;48.838;2.402;2023-05-07T03:32:55;15.42;90.10
65854;DHT22;52627;48.838;2.402;2023-05-07T03:35:23;15.42;90.10
65854;DHT22;52627;48.838;2.402;2023-05-07T03:37:51;15.42;90.14
65854;DHT22;52627;48.838;2.402;2023-05-07T03:40:18;15.37;90.08
65854;DHT22;52627;48.838;2.402;2023-05-07T03:42:46;15.33;90.10
65854;DHT22;52627;48.838;2.402;2023-05-07T03:45:14;15.32;90.11
65854;DHT22;52627;48.838;2.402;2023-05-07T03:47:41;15.31;90.17
65854;DHT22;52627;48.838;2.402;2023-05-07T03:50:09;15.30;90.20
65854;DHT22;52627;48.838;2.402;2023-05-07T03:52:38;15.29;90.20
65854;DHT22;52627;48.838;2.402;2023-05-07T03:55:05;15.29;90.23
65854;DHT22;52627;48.838;2.402;2023-05-07T03:57:34;15.28;90.25
65854;DHT22;52627;48.838;2.402;2023-05-07T04:00:02;15.28;90.29
65854;DHT22;52627;48.838;2.402;2023-05-07T04:02:31;15.26;90.30
65854;DHT22;52627;48.838;2.402;2023-05-07T04:05:00;15.27;90.34
65854;DHT22;52627;48.838;2.402;2023-05-07T04:07:28;15.26;90.33
65854;DHT22;52627;48.838;2.402;2023-05-07T04:09:55;15.25;90.34
65854;DHT22;52627;48.838;2.402;2023-05-07T04:12:23;15.22;90.37
65854;DHT22;52627;48.838;2.402;2023-05-07T04:14:50;15.23;90.40
65854;DHT22;52627;48.838;2.402;2023-05-07T04:17:17;15.23;90.39
65854;DHT22;52627;48.838;2.402;2023-05-07T04:19:45;15.20;90.39
65854;DHT22;52627;48.838;2.402;2023-05-07T04:22:13;15.20;90.41
65854;DHT22;52627;48.838;2.402;2023-05-07T04:24:41;15.21;90.42
65854;DHT22;52627;48.838;2.402;2023-05-07T04:27:08;15.22;90.48
65854;DHT22;52627;48.838;2.402;2023-05-07T04:29:36;15.22;90.48
65854;DHT22;52627;48.838;2.402;2023-05-07T04:32:03;15.24;90.48
65854;DHT22;52627;48.838;2.402;2023-05-07T04:34:31;15.24;90.45
65854;DHT22;52627;48.838;2.402;2023-05-07T04:36:59;15.19;90.39
65854;DHT22;52627;48.838;2.402;2023-05-07T04:39:27;15.14;90.43
65854;DHT22;52627;48.838;2.402;2023-05-07T04:41:55;15.14;90.50
65854;DHT22;52627;48.838;2.402;2023-05-07T04:44:22;15.16;90.53
65854;DHT22;52627;48.838;2.402;2023-05-07T04:46:50;15.15;90.54
65854;DHT22;52627;48.838;2.402;2023-05-07T04:49:17;15.15;90.59
65854;DHT22;52627;48.838;2.402;2023-05-07T04:51:44;15.15;90.60
65854;DHT22;52627;48.838;2.402;2023-05-07T04:54:12;15.15;90.58
65854;DHT22;52627;48.838;2.402;2023-05-07T04:56:39;15.15;90.61
65854;DHT22;52627;48.838;2.402;2023-05-07T04:59:07;15.16;90.63
65854;DHT22;52627;48.838;2.402;2023-05-07T05:01:35;15.17;90.67
65854;DHT22;52627;48.838;2.402;2023-05-07T05:04:02;15.19;90.69
65854;DHT22;52627;48.838;2.402;2023-05-07T05:06:30;15.21;90.69
65854;DHT22;52627;48.838;2.402;2023-05-07T05:08:58;15.20;90.68
65854;DHT22;52627;48.838;2.402;2023-05-07T05:11:25;15.20;90.67
65854;DHT22;52627;48.838;2.402;2023-05-07T05:13:53;15.20;90.65
65854;DHT22;52627;48.838;2.402;2023-05-07T05:16:20;15.20;90.67
65854;DHT22;52627;48.838;2.402;2023-05-07T05:18:48;15.19;90.66
65854;DHT22;52627;48.838;2.402;2023-05-07T05:21:15;15.20;90.69
65854;DHT22;52627;48.838;2.402;2023-05-07T05:23:43;15.19;90.61
65854;DHT22;52627;48.838;2.402;2023-05-07T05:26:10;15.19;90.63
65854;DHT22;52627;48.838;2.402;2023-05-07T05:28:38;15.18;90.64
65854;DHT22;52627;48.838;2.402;2023-05-07T05:31:05;15.14;90.60
65854;DHT22;52627;48.838;2.402;2023-05-07T05:33:33;15.12;90.61
65854;DHT22;52627;48.838;2.402;2023-05-07T05:36:01;15.12;90.67
65854;DHT22;52627;48.838;2.402;2023-05-07T05:38:29;15.13;90.70
65854;DHT22;52627;48.838;2.402;2023-05-07T05:40:56;15.14;90.71
65854;DHT22;52627;48.838;2.402;2023-05-07T05:43:23;15.13;90.70
65854;DHT22;52627;48.838;2.402;2023-05-07T05:45:51;15.13;90.72
65854;DHT22;52627;48.838;2.402;2023-05-07T05:48:18;15.15;90.75
65854;DHT22;52627;48.838;2.402;2023-05-07T05:50:46;15.13;90.70
65854;DHT22;52627;48.838;2.402;2023-05-07T05:53:14;15.13;90.76
65854;DHT22;52627;48.838;2.402;2023-05-07T05:55:42;15.14;90.80
65854;DHT22;52627;48.838;2.402;2023-05-07T05:58:10;15.14;90.81
65854;DHT22;52627;48.838;2.402;2023-05-07T06:00:38;15.15;90.80
65854;DHT22;52627;48.838;2.402;2023-05-07T06:03:05;15.18;90.84
65854;DHT22;52627;48.838;2.402;2023-05-07T06:05:33;15.19;90.87
65854;DHT22;52627;48.838;2.402;2023-05-07T06:08:00;15.22;90.90
65854;DHT22;52627;48.838;2.402;2023-05-07T06:10:28;15.23;90.89
65854;DHT22;52627;48.838;2.402;2023-05-07T06:12:57;15.24;90.90
65854;DHT22;52627;48.838;2.402;2023-05-07T06:15:24;15.25;90.90
65854;DHT22;52627;48.838;2.402;2023-05-07T06:17:52;15.26;90.90
65854;DHT22;52627;48.838;2.402;2023-05-07T06:20:19;15.28;90.91
65854;DHT22;52627;48.838;2.402;2023-05-07T06:22:47;15.30;90.94
65854;DHT22;52627;48.838;2.402;2023-05-07T06:25:14;15.32;90.91
65854;DHT22;52627;48.838;2.402;2023-05-07T06:27:41;15.33;90.96
65854;DHT22;52627;48.838;2.402;2023-05-07T06:30:09;15.36;90.97
65854;DHT22;52627;48.838;2.402;2023-05-07T06:32:39;15.39;90.98
65854;DHT22;52627;48.838;2.402;2023-05-07T06:35:08;15.43;90.99
65854;DHT22;52627;48.838;2.402;2023-05-07T06:37:35;15.47;91.00
65854;DHT22;52627;48.838;2.402;2023-05-07T06:40:05;15.52;91.00
65854;DHT22;52627;48.838;2.402;2023-05-07T06:42:35;15.56;91.02
65854;DHT22;52627;48.838;2.402;2023-05-07T06:45:04;15.61;91.01
65854;DHT22;52627;48.838;2.402;2023-05-07T06:47:32;15.66;91.00
65854;DHT22;52627;48.838;2.402;2023-05-07T06:50:00;15.72;91.02
65854;DHT22;52627;48.838;2.402;2023-05-07T06:52:27;15.77;91.01
65854;DHT22;52627;48.838;2.402;2023-05-07T06:54:54;15.81;91.02
65854;DHT22;52627;48.838;2.402;2023-05-07T06:57:22;15.85;91.00
65854;DHT22;52627;48.838;2.402;2023-05-07T06:59:50;15.86;90.95
65854;DHT22;52627;48.838;2.402;2023-05-07T07:02:18;15.85;90.90
65854;DHT22;52627;48.838;2.402;2023-05-07T07:04:45;15.85;90.90
65854;DHT22;52627;48.838;2.402;2023-05-07T07:07:13;15.87;90.92
65854;DHT22;52627;48.838;2.402;2023-05-07T07:09:40;15.88;90.92
65854;DHT22;52627;48.838;2.402;2023-05-07T07:12:08;15.90;90.91
65854;DHT22;52627;48.838;2.402;2023-05-07T07:14:35;15.92;90.96
65854;DHT22;52627;48.838;2.402;2023-05-07T07:17:03;15.96;90.99
65854;DHT22;52627;48.838;2.402;2023-05-07T07:19:32;15.99;90.97
65854;DHT22;52627;48.838;2.402;2023-05-07T07:21:59;15.99;90.98
65854;DHT22;52627;48.838;2.402;2023-05-07T07:24:27;16.02;90.99
65854;DHT22;52627;48.838;2.402;2023-05-07T07:26:54;16.05;91.00
65854;DHT22;52627;48.838;2.402;2023-05-07T07:29:22;16.09;91.00
65854;DHT22;52627;48.838;2.402;2023-05-07T07:31:49;16.11;91.02
65854;DHT22;52627;48.838;2.402;2023-05-07T07:34:17;16.14;91.01
65854;DHT22;52627;48.838;2.402;2023-05-07T07:36:45;16.14;91.01
65854;DHT22;52627;48.838;2.402;2023-05-07T07:39:13;16.15;91.00
65854;DHT22;52627;48.838;2.402;2023-05-07T07:41:40;16.16;91.03
65854;DHT22;52627;48.838;2.402;2023-05-07T07:44:08;16.16;91.01
65854;DHT22;52627;48.838;2.402;2023-05-07T07:46:36;16.15;91.00
65854;DHT22;52627;48.838;2.402;2023-05-07T07:49:03;16.16;91.00
65854;DHT22;52627;48.838;2.402;2023-05-07T07:51:31;16.19;91.01
65854;DHT22;52627;48.838;2.402;2023-05-07T07:53:59;16.21;91.00
65854;DHT22;52627;48.838;2.402;2023-05-07T07:56:27;16.20;90.96
65854;DHT22;52627;48.838;2.402;2023-05-07T07:58:55;16.20;90.98
65854;DHT22;52627;48.838;2.402;2023-05-07T08:01:22;16.23;90.99
65854;DHT22;52627;48.838;2.402;2023-05-07T08:03:50;16.26;90.95
65854;DHT22;52627;48.838;2.402;2023-05-07T08:06:18;16.32;91.01
65854;DHT22;52627;48.838;2.402;2023-05-07T08:08:45;16.39;91.04
65854;DHT22;52627;48.838;2.402;2023-05-07T08:11:13;16.44;91.06
65854;DHT22;52627;48.838;2.402;2023-05-07T08:13:41;16.44;90.99
65854;DHT22;52627;48.838;2.402;2023-05-07T08:16:09;16.42;90.94
65854;DHT22;52627;48.838;2.402;2023-05-07T08:18:36;16.42;90.89
65854;DHT22;52627;48.838;2.402;2023-05-07T08:21:04;16.38;90.82
65854;DHT22;52627;48.838;2.402;2023-05-07T08:23:31;16.41;90.89
65854;DHT22;52627;48.838;2.402;2023-05-07T08:26:01;16.43;90.91
65854;DHT22;52627;48.838;2.402;2023-05-07T08:28:28;16.43;90.89
65854;DHT22;52627;48.838;2.402;2023-05-07T08:30:56;16.42;90.89
65854;DHT22;52627;48.838;2.402;2023-05-07T08:33:23;16.40;90.82
65854;DHT22;52627;48.838;2.402;2023-05-07T08:35:51;16.39;90.88
65854;DHT22;52627;48.838;2.402;2023-05-07T08:38:18;16.39;90.90
65854;DHT22;52627;48.838;2.402;2023-05-07T08:40:47;16.41;90.90
65854;DHT22;52627;48.838;2.402;2023-05-07T08:43:14;16.42;90.87
65854;DHT22;52627;48.838;2.402;2023-05-07T08:45:45;16.43;90.83
65854;DHT22;52627;48.838;2.402;2023-05-07T08:48:16;16.45;90.77
65854;DHT22;52627;48.838;2.402;2023-05-07T08:50:44;16.47;90.73
65854;DHT22;52627;48.838;2.402;2023-05-07T08:53:12;16.50;90.70
65854;DHT22;52627;48.838;2.402;2023-05-07T08:55:42;16.53;90.70
65854;DHT22;52627;48.838;2.402;2023-05-07T08:58:09;16.56;90.64
65854;DHT22;52627;48.838;2.402;2023-05-07T09:00:37;16.56;90.60
65854;DHT22;52627;48.838;2.402;2023-05-07T09:03:07;16.58;90.60
65854;DHT22;52627;48.838;2.402;2023-05-07T09:05:36;16.61;90.58
65854;DHT22;52627;48.838;2.402;2023-05-07T09:08:03;16.62;90.59
65854;DHT22;52627;48.838;2.402;2023-05-07T09:10:35;16.67;90.60
65854;DHT22;52627;48.838;2.402;2023-05-07T09:13:02;16.71;90.64
65854;DHT22;52627;48.838;2.402;2023-05-07T09:15:31;16.75;90.63
65854;DHT22;52627;48.838;2.402;2023-05-07T09:17:59;16.74;90.57
65854;DHT22;52627;48.838;2.402;2023-05-07T09:20:30;16.71;90.46
65854;DHT22;52627;48.838;2.402;2023-05-07T09:23:05;16.70;90.42
65854;DHT22;52627;48.838;2.402;2023-05-07T09:25:34;16.71;90.43
65854;DHT22;52627;48.838;2.402;2023-05-07T09:28:04;16.75;90.49
65854;DHT22;52627;48.838;2.402;2023-05-07T09:30:37;16.82;90.51
65854;DHT22;52627;48.838;2.402;2023-05-07T09:33:04;16.86;90.49
65854;DHT22;52627;48.838;2.402;2023-05-07T09:35:32;16.86;90.41
65854;DHT22;52627;48.838;2.402;2023-05-07T09:38:00;16.91;90.41
65854;DHT22;52627;48.838;2.402;2023-05-07T09:40:30;16.95;90.46
65854;DHT22;52627;48.838;2.402;2023-05-07T09:43:08;16.94;90.42
65854;DHT22;52627;48.838;2.402;2023-05-07T09:45:41;16.94;90.40
65854;DHT22;52627;48.838;2.402;2023-05-07T09:48:09;16.95;90.40
65854;DHT22;52627;48.838;2.402;2023-05-07T09:50:40;16.93;90.38
65854;DHT22;52627;48.838;2.402;2023-05-07T09:53:17;16.96;90.40
65854;DHT22;52627;48.838;2.402;2023-05-07T09:55:44;16.98;90.40
65854;DHT22;52627;48.838;2.402;2023-05-07T09:58:13;17.01;90.42
65854;DHT22;52627;48.838;2.402;2023-05-07T10:00:43;17.03;90.36
65854;DHT22;52627;48.838;2.402;2023-05-07T10:03:11;17.09;90.33
65854;DHT22;52627;48.838;2.402;2023-05-07T10:05:41;17.17;90.38
65854;DHT22;52627;48.838;2.402;2023-05-07T10:08:11;17.27;90.40
65854;DHT22;52627;48.838;2.402;2023-05-07T10:10:39;17.34;90.30
65854;DHT22;52627;48.838;2.402;2023-05-07T10:13:07;17.37;90.20
65854;DHT22;52627;48.838;2.402;2023-05-07T10:15:37;17.51;90.22
65854;DHT22;52627;48.838;2.402;2023-05-07T10:18:05;17.60;90.09
65854;DHT22;52627;48.838;2.402;2023-05-07T10:20:33;17.64;90.03
65854;DHT22;52627;48.838;2.402;2023-05-07T10:23:04;17.68;89.88
65854;DHT22;52627;48.838;2.402;2023-05-07T10:25:32;17.71;89.75
65854;DHT22;52627;48.838;2.402;2023-05-07T10:28:02;17.79;89.71
65854;DHT22;52627;48.838;2.402;2023-05-07T10:33:42;17.95;89.67
65854;DHT22;52627;48.838;2.402;2023-05-07T10:36:13;17.93;89.51
65854;DHT22;52627;48.838;2.402;2023-05-07T10:38:41;17.84;89.38
65854;DHT22;52627;48.838;2.402;2023-05-07T10:41:09;17.77;89.30
65854;DHT22;52627;48.838;2.402;2023-05-07T10:43:39;17.73;89.30
65854;DHT22;52627;48.838;2.402;2023-05-07T10:46:09;17.78;89.40
65854;DHT22;52627;48.838;2.402;2023-05-07T10:51:34;17.86;89.26
65854;DHT22;52627;48.838;2.402;2023-05-07T10:56:40;17.91;89.03
65854;DHT22;52627;48.838;2.402;2023-05-07T11:01:55;17.95;89.01
65854;DHT22;52627;48.838;2.402;2023-05-07T11:04:25;18.01;89.05
65854;DHT22;52627;48.838;2.402;2023-05-07T11:12:46;18.46;88.97
65854;DHT22;52627;48.838;2.402;2023-05-07T11:17:34;18.37;88.44
65854;DHT22;52627;48.838;2.402;2023-05-07T11:20:20;18.27;88.25
65854;DHT22;52627;48.838;2.402;2023-05-07T11:22:49;18.17;88.05
65854;DHT22;52627;48.838;2.402;2023-05-07T11:25:18;18.14;88.21
65854;DHT22;52627;48.838;2.402;2023-05-07T11:27:46;18.16;88.33
65854;DHT22;52627;48.838;2.402;2023-05-07T11:30:17;18.18;88.37
65854;DHT22;52627;48.838;2.402;2023-05-07T11:32:48;18.17;88.34
65854;DHT22;52627;48.838;2.402;2023-05-07T11:35:16;18.12;88.30
65854;DHT22;52627;48.838;2.402;2023-05-07T11:37:44;18.06;88.21
65854;DHT22;52627;48.838;2.402;2023-05-07T11:40:14;17.98;88.10
65854;DHT22;52627;48.838;2.402;2023-05-07T11:42:41;17.94;88.10
65854;DHT22;52627;48.838;2.402;2023-05-07T11:45:11;17.92;88.19
65854;DHT22;52627;48.838;2.402;2023-05-07T11:47:51;17.90;88.19
65854;DHT22;52627;48.838;2.402;2023-05-07T11:50:18;17.87;88.12
65854;DHT22;52627;48.838;2.402;2023-05-07T11:52:50;17.80;88.10
65854;DHT22;52627;48.838;2.402;2023-05-07T11:55:19;17.73;88.06
65854;DHT22;52627;48.838;2.402;2023-05-07T11:57:47;17.67;88.08
65854;DHT22;52627;48.838;2.402;2023-05-07T12:00:15;17.64;88.10
65854;DHT22;52627;48.838;2.402;2023-05-07T12:02:45;17.56;88.00
65854;DHT22;52627;48.838;2.402;2023-05-07T12:05:13;17.47;88.02
65854;DHT22;52627;48.838;2.402;2023-05-07T12:07:41;17.42;88.16
65854;DHT22;52627;48.838;2.402;2023-05-07T12:10:08;17.42;88.29
65854;DHT22;52627;48.838;2.402;2023-05-07T12:12:41;17.49;88.37
65854;DHT22;52627;48.838;2.402;2023-05-07T12:15:13;17.74;88.43
65854;DHT22;52627;48.838;2.402;2023-05-07T12:17:44;18.27;88.56
65854;DHT22;52627;48.838;2.402;2023-05-07T12:20:12;18.80;88.44
65854;DHT22;52627;48.838;2.402;2023-05-07T12:22:40;19.12;88.12
65854;DHT22;52627;48.838;2.402;2023-05-07T12:25:08;19.29;88.06
65854;DHT22;52627;48.838;2.402;2023-05-07T12:27:37;19.40;87.97
65854;DHT22;52627;48.838;2.402;2023-05-07T12:30:09;19.62;87.99
65854;DHT22;52627;48.838;2.402;2023-05-07T12:32:39;19.78;88.01
65854;DHT22;52627;48.838;2.402;2023-05-07T12:35:07;19.90;88.05
65854;DHT22;52627;48.838;2.402;2023-05-07T12:37:39;19.92;87.89
65854;DHT22;52627;48.838;2.402;2023-05-07T12:40:09;19.90;87.81
65854;DHT22;52627;48.838;2.402;2023-05-07T12:42:39;19.84;87.69
65854;DHT22;52627;48.838;2.402;2023-05-07T12:45:09;19.65;87.25
65854;DHT22;52627;48.838;2.402;2023-05-07T12:47:44;19.43;87.03
65854;DHT22;52627;48.838;2.402;2023-05-07T12:50:16;19.28;87.15
65854;DHT22;52627;48.838;2.402;2023-05-07T12:52:45;19.22;87.25
65854;DHT22;52627;48.838;2.402;2023-05-07T12:55:15;19.17;87.17
65854;DHT22;52627;48.838;2.402;2023-05-07T12:57:45;19.11;87.16
65854;DHT22;52627;48.838;2.402;2023-05-07T13:00:32;19.09;87.14
65854;DHT22;52627;48.838;2.402;2023-05-07T13:03:04;19.06;87.15
65854;DHT22;52627;48.838;2.402;2023-05-07T13:05:32;19.05;87.11
65854;DHT22;52627;48.838;2.402;2023-05-07T13:08:00;19.01;87.10
65854;DHT22;52627;48.838;2.402;2023-05-07T13:10:28;18.96;86.95
65854;DHT22;52627;48.838;2.402;2023-05-07T13:12:56;18.93;86.97
65854;DHT22;52627;48.838;2.402;2023-05-07T13:15:23;18.90;86.92
65854;DHT22;52627;48.838;2.402;2023-05-07T13:17:51;18.87;86.89
65854;DHT22;52627;48.838;2.402;2023-05-07T13:20:18;18.83;86.81
65854;DHT22;52627;48.838;2.402;2023-05-07T13:22:46;18.79;86.83
65854;DHT22;52627;48.838;2.402;2023-05-07T13:25:13;18.76;86.84
65854;DHT22;52627;48.838;2.402;2023-05-07T13:27:41;18.73;86.84
65854;DHT22;52627;48.838;2.402;2023-05-07T13:30:08;18.70;86.87
65854;DHT22;52627;48.838;2.402;2023-05-07T13:32:36;18.67;86.81
65854;DHT22;52627;48.838;2.402;2023-05-07T13:35:04;18.68;86.95
65854;DHT22;52627;48.838;2.402;2023-05-07T13:37:33;18.69;87.00
65854;DHT22;52627;48.838;2.402;2023-05-07T13:40:00;18.70;87.01
65854;DHT22;52627;48.838;2.402;2023-05-07T13:42:28;18.67;86.89
65854;DHT22;52627;48.838;2.402;2023-05-07T13:44:56;18.65;86.87
65854;DHT22;52627;48.838;2.402;2023-05-07T13:47:24;18.64;86.90
65854;DHT22;52627;48.838;2.402;2023-05-07T13:49:52;18.64;86.85
65854;DHT22;52627;48.838;2.402;2023-05-07T13:52:19;18.63;86.85
65854;DHT22;52627;48.838;2.402;2023-05-07T13:54:47;18.64;86.91
65854;DHT22;52627;48.838;2.402;2023-05-07T13:57:15;18.66;87.00
65854;DHT22;52627;48.838;2.402;2023-05-07T13:59:42;18.62;86.87
65854;DHT22;52627;48.838;2.402;2023-05-07T14:02:09;18.60;86.86
65854;DHT22;52627;48.838;2.402;2023-05-07T14:04:37;18.58;86.90
65854;DHT22;52627;48.838;2.402;2023-05-07T14:07:05;18.51;86.87
65854;DHT22;52627;48.838;2.402;2023-05-07T14:09:32;18.42;86.95
65854;DHT22;52627;48.838;2.402;2023-05-07T14:11:59;18.35;87.01
65854;DHT22;52627;48.838;2.402;2023-05-07T14:14:28;18.32;87.03
65854;DHT22;52627;48.838;2.402;2023-05-07T14:16:55;18.31;87.05
65854;DHT22;52627;48.838;2.402;2023-05-07T14:19:24;18.36;87.11
65854;DHT22;52627;48.838;2.402;2023-05-07T14:21:51;18.44;87.20
65854;DHT22;52627;48.838;2.402;2023-05-07T14:24:19;18.52;87.14
65854;DHT22;52627;48.838;2.402;2023-05-07T14:27:03;18.57;87.01
65854;DHT22;52627;48.838;2.402;2023-05-07T14:29:31;18.64;87.05
65854;DHT22;52627;48.838;2.402;2023-05-07T14:31:58;18.73;87.03
65854;DHT22;52627;48.838;2.402;2023-05-07T14:34:26;18.82;87.16
65854;DHT22;52627;48.838;2.402;2023-05-07T14:36:53;18.92;87.33
65854;DHT22;52627;48.838;2.402;2023-05-07T14:39:21;18.95;87.16
65854;DHT22;52627;48.838;2.402;2023-05-07T14:41:48;18.95;87.02
65854;DHT22;52627;48.838;2.402;2023-05-07T14:44:16;18.98;86.96
65854;DHT22;52627;48.838;2.402;2023-05-07T14:46:43;19.00;86.91
65854;DHT22;52627;48.838;2.402;2023-05-07T14:49:11;19.06;86.99
65854;DHT22;52627;48.838;2.402;2023-05-07T14:51:44;19.14;86.92
65854;DHT22;52627;48.838;2.402;2023-05-07T14:54:13;19.27;87.00
65854;DHT22;52627;48.838;2.402;2023-05-07T14:56:41;19.43;87.03
65854;DHT22;52627;48.838;2.402;2023-05-07T14:59:09;19.58;86.95
65854;DHT22;52627;48.838;2.402;2023-05-07T15:01:37;19.69;86.78
65854;DHT22;52627;48.838;2.402;2023-05-07T15:04:05;19.77;86.79
65854;DHT22;52627;48.838;2.402;2023-05-07T15:06:33;19.82;86.60
65854;DHT22;52627;48.838;2.402;2023-05-07T15:09:00;19.82;86.51
65854;DHT22;52627;48.838;2.402;2023-05-07T15:11:27;19.77;86.31
65854;DHT22;52627;48.838;2.402;2023-05-07T15:13:55;19.65;86.10
65854;DHT22;52627;48.838;2.402;2023-05-07T15:16:23;19.57;86.15
65854;DHT22;52627;48.838;2.402;2023-05-07T15:18:51;19.49;86.10
65854;DHT22;52627;48.838;2.402;2023-05-07T15:21:18;19.43;86.11
65854;DHT22;52627;48.838;2.402;2023-05-07T15:23:46;19.37;86.13
65854;DHT22;52627;48.838;2.402;2023-05-07T15:26:13;19.24;85.90
65854;DHT22;52627;48.838;2.402;2023-05-07T15:28:40;19.03;85.74
65854;DHT22;52627;48.838;2.402;2023-05-07T15:31:08;18.74;86.30
65854;DHT22;52627;48.838;2.402;2023-05-07T15:33:36;18.32;87.06
65854;DHT22;52627;48.838;2.402;2023-05-07T15:36:04;17.95;87.93
65854;DHT22;52627;48.838;2.402;2023-05-07T15:38:33;17.71;88.52
65854;DHT22;52627;48.838;2.402;2023-05-07T15:41:01;17.53;88.85
65854;DHT22;52627;48.838;2.402;2023-05-07T15:43:28;17.32;89.07
65854;DHT22;52627;48.838;2.402;2023-05-07T15:45:56;17.17;89.34
65854;DHT22;52627;48.838;2.402;2023-05-07T15:48:24;17.06;89.55
65854;DHT22;52627;48.838;2.402;2023-05-07T15:50:51;16.97;89.77
65854;DHT22;52627;48.838;2.402;2023-05-07T15:53:19;16.91;89.97
65854;DHT22;52627;48.838;2.402;2023-05-07T15:55:46;16.85;90.16